sensor_id;sensor_type;location;lat;lon;timestamp;P1;durP1;ratioP1;P2;durP2;ratioP2
7171;SDS011;3627;46.544;14.944;2022-12-29T00:01:42;11.70;;;7.23;;
7171;SDS011;3627;46.544;14.944;2022-12-29T00:04:09;11.13;;;5.77;;
7171;SDS011;3627;46.544;14.944;2022-12-29T00:06:37;12.37;;;8.33;;
7171;SDS011;3627;46.544;14.944;2022-12-29T00:09:04;9.47;;;7.10;;
7171;SDS011;3627;46.544;14.944;2022-12-29T00:11:31;9.50;;;5.77;;
7171;SDS011;3627;46.544;14.944;2022-12-29T00:13:58;9.67;;;6.30;;
7171;SDS011;3627;46.544;14.944;2022-12-29T00:16:53;8.50;;;6.10;;
7171;SDS011;3627;46.544;14.944;2022-12-29T00:19:19;5.67;;;5.00;;
7171;SDS011;3627;46.544;14.944;2022-12-29T00:22:03;6.57;;;5.60;;
7171;SDS011;3627;46.544;14.944;2022-12-29T00:24:48;7.27;;;5.73;;
7171;SDS011;3627;46.544;14.944;2022-12-29T00:27:32;7.30;;;5.57;;
7171;SDS011;3627;46.544;14.944;2022-12-29T00:30:17;9.33;;;5.60;;
7171;SDS011;3627;46.544;14.944;2022-12-29T00:33:04;13.30;;;5.73;;
7171;SDS011;3627;46.544;14.944;2022-12-29T00:35:52;7.17;;;5.87;;
7171;SDS011;3627;46.544;14.944;2022-12-29T00:38:19;9.23;;;5.93;;
7171;SDS011;3627;46.544;14.944;2022-12-29T00:41:14;7.67;;;5.10;;
7171;SDS011;3627;46.544;14.944;2022-12-29T00:43:58;8.63;;;6.57;;
7171;SDS011;3627;46.544;14.944;2022-12-29T00:46:35;8.43;;;5.77;;
7171;SDS011;3627;46.544;14.944;2022-12-29T00:49:02;8.93;;;5.27;;
7171;SDS011;3627;46.544;14.944;2022-12-29T00:51:46;6.77;;;5.77;;
7171;SDS011;3627;46.544;14.944;2022-12-29T00:54:13;7.93;;;5.53;;
7171;SDS011;3627;46.544;14.944;2022-12-29T00:56:41;7.07;;;6.37;;
7171;SDS011;3627;46.544;14.944;2022-12-29T00:59:07;7.20;;;5.87;;
7171;SDS011;3627;46.544;14.944;2022-12-29T01:01:34;10.00;;;6.07;;
7171;SDS011;3627;46.544;14.944;2022-12-29T01:04:01;8.40;;;6.03;;
7171;SDS011;3627;46.544;14.944;2022-12-29T01:06:27;6.93;;;5.70;;
7171;SDS011;3627;46.544;14.944;2022-12-29T01:08:53;7.07;;;5.57;;
7171;SDS011;3627;46.544;14.944;2022-12-29T01:11:34;7.33;;;5.80;;
7171;SDS011;3627;46.544;14.944;2022-12-29T01:14:01;9.07;;;5.10;;
7171;SDS011;3627;46.544;14.944;2022-12-29T01:16:28;6.43;;;5.40;;
7171;SDS011;3627;46.544;14.944;2022-12-29T01:18:54;7.00;;;5.43;;
7171;SDS011;3627;46.544;14.944;2022-12-29T01:21:21;9.50;;;6.10;;
7171;SDS011;3627;46.544;14.944;2022-12-29T01:23:47;7.03;;;5.93;;
7171;SDS011;3627;46.544;14.944;2022-12-29T01:26:14;7.63;;;6.07;;
7171;SDS011;3627;46.544;14.944;2022-12-29T01:28:41;6.67;;;4.83;;
7171;SDS011;3627;46.544;14.944;2022-12-29T01:31:09;8.13;;;4.90;;
7171;SDS011;3627;46.544;14.944;2022-12-29T01:33:35;9.53;;;5.73;;
7171;SDS011;3627;46.544;14.944;2022-12-29T01:36:02;7.87;;;5.40;;
7171;SDS011;3627;46.544;14.944;2022-12-29T01:38:29;7.40;;;5.60;;
7171;SDS011;3627;46.544;14.944;2022-12-29T01:40:55;7.90;;;5.93;;
7171;SDS011;3627;46.544;14.944;2022-12-29T01:43:37;9.57;;;6.03;;
7171;SDS011;3627;46.544;14.944;2022-12-29T01:46:04;7.60;;;6.37;;
7171;SDS011;3627;46.544;14.944;2022-12-29T01:48:35;7.13;;;5.33;;
7171;SDS011;3627;46.544;14.944;2022-12-29T01:51:01;7.57;;;5.03;;
7171;SDS011;3627;46.544;14.944;2022-12-29T01:53:28;6.77;;;6.17;;
7171;SDS011;3627;46.544;14.944;2022-12-29T01:55:57;6.63;;;4.87;;
7171;SDS011;3627;46.544;14.944;2022-12-29T01:58:26;9.50;;;6.43;;
7171;SDS011;3627;46.544;14.944;2022-12-29T02:00:54;6.03;;;5.30;;
7171;SDS011;3627;46.544;14.944;2022-12-29T02:03:20;6.93;;;5.60;;
7171;SDS011;3627;46.544;14.944;2022-12-29T02:05:50;7.47;;;6.03;;
7171;SDS011;3627;46.544;14.944;2022-12-29T02:08:19;10.83;;;6.53;;
7171;SDS011;3627;46.544;14.944;2022-12-29T02:10:46;6.77;;;5.63;;
7171;SDS011;3627;46.544;14.944;2022-12-29T02:13:14;6.80;;;5.00;;
7171;SDS011;3627;46.544;14.944;2022-12-29T02:15:43;7.70;;;5.63;;
7171;SDS011;3627;46.544;14.944;2022-12-29T02:18:17;6.67;;;5.50;;
7171;SDS011;3627;46.544;14.944;2022-12-29T02:21:02;6.43;;;5.10;;
7171;SDS011;3627;46.544;14.944;2022-12-29T02:23:40;9.33;;;5.13;;
7171;SDS011;3627;46.544;14.944;2022-12-29T02:26:15;11.07;;;6.80;;
7171;SDS011;3627;46.544;14.944;2022-12-29T02:28:47;10.00;;;5.47;;
7171;SDS011;3627;46.544;14.944;2022-12-29T02:31:21;10.33;;;5.93;;
7171;SDS011;3627;46.544;14.944;2022-12-29T02:33:53;8.07;;;5.37;;
7171;SDS011;3627;46.544;14.944;2022-12-29T02:36:24;7.33;;;5.90;;
7171;SDS011;3627;46.544;14.944;2022-12-29T02:38:56;7.73;;;5.90;;
7171;SDS011;3627;46.544;14.944;2022-12-29T02:41:27;7.83;;;5.07;;
7171;SDS011;3627;46.544;14.944;2022-12-29T02:43:56;7.70;;;5.27;;
7171;SDS011;3627;46.544;14.944;2022-12-29T02:46:28;8.40;;;5.80;;
7171;SDS011;3627;46.544;14.944;2022-12-29T02:49:00;8.90;;;6.43;;
7171;SDS011;3627;46.544;14.944;2022-12-29T02:51:30;6.23;;;5.17;;
7171;SDS011;3627;46.544;14.944;2022-12-29T02:53:59;7.63;;;5.30;;
7171;SDS011;3627;46.544;14.944;2022-12-29T02:56:43;9.33;;;5.63;;
7171;SDS011;3627;46.544;14.944;2022-12-29T02:59:09;7.27;;;5.10;;
7171;SDS011;3627;46.544;14.944;2022-12-29T03:01:40;7.20;;;5.27;;
7171;SDS011;3627;46.544;14.944;2022-12-29T03:04:31;10.30;;;6.23;;
7171;SDS011;3627;46.544;14.944;2022-12-29T03:07:06;8.57;;;5.17;;
7171;SDS011;3627;46.544;14.944;2022-12-29T03:09:36;8.83;;;5.27;;
7171;SDS011;3627;46.544;14.944;2022-12-29T03:12:07;9.33;;;6.10;;
7171;SDS011;3627;46.544;14.944;2022-12-29T03:14:38;10.27;;;6.17;;
7171;SDS011;3627;46.544;14.944;2022-12-29T03:17:26;6.97;;;5.57;;
7171;SDS011;3627;46.544;14.944;2022-12-29T03:19:53;11.30;;;6.27;;
7171;SDS011;3627;46.544;14.944;2022-12-29T03:22:25;7.60;;;5.90;;
7171;SDS011;3627;46.544;14.944;2022-12-29T03:24:54;10.43;;;6.53;;
7171;SDS011;3627;46.544;14.944;2022-12-29T03:27:22;6.70;;;5.97;;
7171;SDS011;3627;46.544;14.944;2022-12-29T03:29:50;8.73;;;6.13;;
7171;SDS011;3627;46.544;14.944;2022-12-29T03:32:19;8.03;;;5.53;;
7171;SDS011;3627;46.544;14.944;2022-12-29T03:34:48;10.67;;;5.90;;
7171;SDS011;3627;46.544;14.944;2022-12-29T03:37:16;5.90;;;5.30;;
7171;SDS011;3627;46.544;14.944;2022-12-29T03:39:43;7.10;;;5.33;;
7171;SDS011;3627;46.544;14.944;2022-12-29T03:42:10;7.00;;;5.80;;
7171;SDS011;3627;46.544;14.944;2022-12-29T03:44:38;10.03;;;6.53;;
7171;SDS011;3627;46.544;14.944;2022-12-29T03:47:06;10.57;;;6.40;;
7171;SDS011;3627;46.544;14.944;2022-12-29T03:49:33;7.83;;;5.77;;
7171;SDS011;3627;46.544;14.944;2022-12-29T03:52:01;6.53;;;5.13;;
7171;SDS011;3627;46.544;14.944;2022-12-29T03:54:28;7.77;;;6.27;;
7171;SDS011;3627;46.544;14.944;2022-12-29T03:56:54;6.37;;;5.33;;
7171;SDS011;3627;46.544;14.944;2022-12-29T03:59:21;7.37;;;5.43;;
7171;SDS011;3627;46.544;14.944;2022-12-29T04:01:47;7.27;;;5.70;;
7171;SDS011;3627;46.544;14.944;2022-12-29T04:04:14;6.97;;;5.10;;
7171;SDS011;3627;46.544;14.944;2022-12-29T04:06:40;5.63;;;5.03;;
7171;SDS011;3627;46.544;14.944;2022-12-29T04:09:09;7.27;;;5.80;;
7171;SDS011;3627;46.544;14.944;2022-12-29T04:11:35;9.60;;;5.27;;
7171;SDS011;3627;46.544;14.944;2022-12-29T04:14:01;8.77;;;5.60;;
7171;SDS011;3627;46.544;14.944;2022-12-29T04:16:28;7.23;;;5.60;;
7171;SDS011;3627;46.544;14.944;2022-12-29T04:18:54;6.47;;;5.80;;
7171;SDS011;3627;46.544;14.944;2022-12-29T04:21:20;6.57;;;5.23;;
7171;SDS011;3627;46.544;14.944;2022-12-29T04:23:46;6.37;;;5.33;;
7171;SDS011;3627;46.544;14.944;2022-12-29T04:26:14;13.27;;;5.43;;
7171;SDS011;3627;46.544;14.944;2022-12-29T04:28:40;6.50;;;5.33;;
7171;SDS011;3627;46.544;14.944;2022-12-29T04:31:06;8.00;;;5.50;;
7171;SDS011;3627;46.544;14.944;2022-12-29T04:33:33;9.47;;;4.97;;
7171;SDS011;3627;46.544;14.944;2022-12-29T04:35:59;6.97;;;5.07;;
7171;SDS011;3627;46.544;14.944;2022-12-29T04:38:25;7.50;;;5.33;;
7171;SDS011;3627;46.544;14.944;2022-12-29T04:40:52;7.73;;;5.80;;
7171;SDS011;3627;46.544;14.944;2022-12-29T04:43:20;7.03;;;5.40;;
7171;SDS011;3627;46.544;14.944;2022-12-29T04:45:47;6.33;;;5.40;;
7171;SDS011;3627;46.544;14.944;2022-12-29T04:48:13;8.27;;;6.30;;
7171;SDS011;3627;46.544;14.944;2022-12-29T04:50:40;6.53;;;5.63;;
7171;SDS011;3627;46.544;14.944;2022-12-29T04:53:06;5.67;;;4.83;;
7171;SDS011;3627;46.544;14.944;2022-12-29T04:55:33;5.07;;;4.40;;
7171;SDS011;3627;46.544;14.944;2022-12-29T04:57:59;5.83;;;4.73;;
7171;SDS011;3627;46.544;14.944;2022-12-29T05:00:27;6.33;;;4.93;;
7171;SDS011;3627;46.544;14.944;2022-12-29T05:02:53;7.17;;;5.40;;
7171;SDS011;3627;46.544;14.944;2022-12-29T05:05:23;6.67;;;5.27;;
7171;SDS011;3627;46.544;14.944;2022-12-29T05:07:49;8.33;;;5.70;;
7171;SDS011;3627;46.544;14.944;2022-12-29T05:10:15;8.23;;;5.47;;
7171;SDS011;3627;46.544;14.944;2022-12-29T05:12:42;6.07;;;5.30;;
7171;SDS011;3627;46.544;14.944;2022-12-29T05:15:09;8.60;;;6.47;;
7171;SDS011;3627;46.544;14.944;2022-12-29T05:17:37;8.00;;;5.53;;
7171;SDS011;3627;46.544;14.944;2022-12-29T05:20:03;6.10;;;5.23;;
7171;SDS011;3627;46.544;14.944;2022-12-29T05:22:30;7.13;;;6.27;;
7171;SDS011;3627;46.544;14.944;2022-12-29T05:24:56;8.00;;;5.97;;
7171;SDS011;3627;46.544;14.944;2022-12-29T05:27:23;6.83;;;5.00;;
7171;SDS011;3627;46.544;14.944;2022-12-29T05:29:49;7.13;;;5.63;;
7171;SDS011;3627;46.544;14.944;2022-12-29T05:32:15;10.57;;;7.00;;
7171;SDS011;3627;46.544;14.944;2022-12-29T05:34:43;9.60;;;5.97;;
7171;SDS011;3627;46.544;14.944;2022-12-29T05:37:09;7.60;;;5.47;;
7171;SDS011;3627;46.544;14.944;2022-12-29T05:39:36;7.50;;;5.30;;
7171;SDS011;3627;46.544;14.944;2022-12-29T05:42:02;6.83;;;5.40;;
7171;SDS011;3627;46.544;14.944;2022-12-29T05:44:29;8.30;;;5.63;;
7171;SDS011;3627;46.544;14.944;2022-12-29T05:46:55;6.83;;;6.13;;
7171;SDS011;3627;46.544;14.944;2022-12-29T05:49:21;8.50;;;5.10;;
7171;SDS011;3627;46.544;14.944;2022-12-29T05:51:49;6.10;;;5.47;;
7171;SDS011;3627;46.544;14.944;2022-12-29T05:54:16;5.83;;;5.10;;
7171;SDS011;3627;46.544;14.944;2022-12-29T05:56:42;7.57;;;5.47;;
7171;SDS011;3627;46.544;14.944;2022-12-29T05:59:09;11.43;;;5.87;;
7171;SDS011;3627;46.544;14.944;2022-12-29T06:01:35;5.60;;;5.10;;
7171;SDS011;3627;46.544;14.944;2022-12-29T06:04:02;7.07;;;5.13;;
7171;SDS011;3627;46.544;14.944;2022-12-29T06:06:28;5.90;;;5.20;;
7171;SDS011;3627;46.544;14.944;2022-12-29T06:08:56;6.10;;;5.50;;
7171;SDS011;3627;46.544;14.944;2022-12-29T06:11:23;7.20;;;5.63;;
7171;SDS011;3627;46.544;14.944;2022-12-29T06:13:49;5.97;;;5.03;;
7171;SDS011;3627;46.544;14.944;2022-12-29T06:16:15;6.03;;;5.43;;
7171;SDS011;3627;46.544;14.944;2022-12-29T06:18:42;5.00;;;4.40;;
7171;SDS011;3627;46.544;14.944;2022-12-29T06:21:08;6.37;;;5.17;;
7171;SDS011;3627;46.544;14.944;2022-12-29T06:23:35;8.20;;;5.47;;
7171;SDS011;3627;46.544;14.944;2022-12-29T06:26:02;6.73;;;5.23;;
7171;SDS011;3627;46.544;14.944;2022-12-29T06:28:29;6.77;;;5.50;;
7171;SDS011;3627;46.544;14.944;2022-12-29T06:30:55;6.47;;;5.60;;
7171;SDS011;3627;46.544;14.944;2022-12-29T06:33:22;6.00;;;4.93;;
7171;SDS011;3627;46.544;14.944;2022-12-29T06:35:48;6.90;;;4.70;;
7171;SDS011;3627;46.544;14.944;2022-12-29T06:38:15;6.13;;;4.63;;
7171;SDS011;3627;46.544;14.944;2022-12-29T06:40:41;5.87;;;5.13;;
7171;SDS011;3627;46.544;14.944;2022-12-29T06:43:11;7.00;;;5.13;;
7171;SDS011;3627;46.544;14.944;2022-12-29T06:45:37;6.30;;;5.30;;
7171;SDS011;3627;46.544;14.944;2022-12-29T06:48:04;8.50;;;5.47;;
7171;SDS011;3627;46.544;14.944;2022-12-29T06:50:30;6.03;;;4.63;;
7171;SDS011;3627;46.544;14.944;2022-12-29T06:52:57;7.23;;;5.93;;
7171;SDS011;3627;46.544;14.944;2022-12-29T06:55:23;8.77;;;6.20;;
7171;SDS011;3627;46.544;14.944;2022-12-29T06:57:50;5.57;;;5.07;;
7171;SDS011;3627;46.544;14.944;2022-12-29T07:00:17;8.63;;;5.67;;
7171;SDS011;3627;46.544;14.944;2022-12-29T07:02:44;6.20;;;5.67;;
7171;SDS011;3627;46.544;14.944;2022-12-29T07:05:10;6.70;;;5.40;;
7171;SDS011;3627;46.544;14.944;2022-12-29T07:07:38;9.30;;;6.00;;
7171;SDS011;3627;46.544;14.944;2022-12-29T07:10:05;10.23;;;7.13;;
7171;SDS011;3627;46.544;14.944;2022-12-29T07:12:31;12.33;;;7.23;;
7171;SDS011;3627;46.544;14.944;2022-12-29T07:14:58;12.27;;;7.77;;
7171;SDS011;3627;46.544;14.944;2022-12-29T07:17:25;10.10;;;7.70;;
7171;SDS011;3627;46.544;14.944;2022-12-29T07:19:52;9.50;;;7.63;;
7171;SDS011;3627;46.544;14.944;2022-12-29T07:22:18;10.67;;;7.97;;
7171;SDS011;3627;46.544;14.944;2022-12-29T07:24:44;8.43;;;5.93;;
7171;SDS011;3627;46.544;14.944;2022-12-29T07:27:11;7.20;;;6.37;;
7171;SDS011;3627;46.544;14.944;2022-12-29T07:29:37;8.43;;;7.10;;
7171;SDS011;3627;46.544;14.944;2022-12-29T07:32:04;8.30;;;6.13;;
7171;SDS011;3627;46.544;14.944;2022-12-29T07:34:32;11.63;;;6.67;;
7171;SDS011;3627;46.544;14.944;2022-12-29T07:36:58;14.93;;;8.07;;
7171;SDS011;3627;46.544;14.944;2022-12-29T07:39:24;13.70;;;7.67;;
7171;SDS011;3627;46.544;14.944;2022-12-29T07:41:51;14.23;;;7.73;;
7171;SDS011;3627;46.544;14.944;2022-12-29T07:44:17;13.90;;;10.30;;
7171;SDS011;3627;46.544;14.944;2022-12-29T07:46:43;15.03;;;9.63;;
7171;SDS011;3627;46.544;14.944;2022-12-29T07:49:10;10.80;;;7.90;;
7171;SDS011;3627;46.544;14.944;2022-12-29T07:51:37;11.90;;;7.77;;
7171;SDS011;3627;46.544;14.944;2022-12-29T07:54:04;10.10;;;7.13;;
7171;SDS011;3627;46.544;14.944;2022-12-29T07:56:31;10.63;;;6.30;;
7171;SDS011;3627;46.544;14.944;2022-12-29T07:58:57;13.07;;;7.97;;
7171;SDS011;3627;46.544;14.944;2022-12-29T08:01:23;8.90;;;7.07;;
7171;SDS011;3627;46.544;14.944;2022-12-29T08:03:50;9.63;;;7.10;;
7171;SDS011;3627;46.544;14.944;2022-12-29T08:06:16;11.57;;;7.10;;
7171;SDS011;3627;46.544;14.944;2022-12-29T08:08:44;12.90;;;8.37;;
7171;SDS011;3627;46.544;14.944;2022-12-29T08:11:11;9.80;;;7.03;;
7171;SDS011;3627;46.544;14.944;2022-12-29T08:13:37;8.03;;;6.90;;
7171;SDS011;3627;46.544;14.944;2022-12-29T08:16:04;8.57;;;6.17;;
7171;SDS011;3627;46.544;14.944;2022-12-29T08:18:30;7.13;;;6.17;;
7171;SDS011;3627;46.544;14.944;2022-12-29T08:21:00;9.70;;;7.20;;
7171;SDS011;3627;46.544;14.944;2022-12-29T08:23:27;8.67;;;5.77;;
7171;SDS011;3627;46.544;14.944;2022-12-29T08:25:57;9.17;;;5.63;;
7171;SDS011;3627;46.544;14.944;2022-12-29T08:28:24;12.45;;;7.00;;
7171;SDS011;3627;46.544;14.944;2022-12-29T08:30:50;9.05;;;5.68;;
7171;SDS011;3627;46.544;14.944;2022-12-29T08:33:17;6.43;;;5.10;;
7171;SDS011;3627;46.544;14.944;2022-12-29T08:35:43;8.68;;;5.15;;
7171;SDS011;3627;46.544;14.944;2022-12-29T08:38:09;7.07;;;4.85;;
7171;SDS011;3627;46.544;14.944;2022-12-29T08:40:36;5.63;;;4.55;;
7171;SDS011;3627;46.544;14.944;2022-12-29T08:43:04;7.80;;;4.97;;
7171;SDS011;3627;46.544;14.944;2022-12-29T08:45:30;5.32;;;3.97;;
7171;SDS011;3627;46.544;14.944;2022-12-29T08:47:57;7.15;;;5.25;;
7171;SDS011;3627;46.544;14.944;2022-12-29T08:50:23;9.55;;;5.57;;
7171;SDS011;3627;46.544;14.944;2022-12-29T08:52:50;6.57;;;4.85;;
7171;SDS011;3627;46.544;14.944;2022-12-29T08:55:16;6.50;;;5.05;;
7171;SDS011;3627;46.544;14.944;2022-12-29T08:57:42;7.13;;;4.60;;
7171;SDS011;3627;46.544;14.944;2022-12-29T09:00:11;7.38;;;5.20;;
7171;SDS011;3627;46.544;14.944;2022-12-29T09:02:37;5.03;;;4.53;;
7171;SDS011;3627;46.544;14.944;2022-12-29T09:05:04;3.95;;;3.55;;
7171;SDS011;3627;46.544;14.944;2022-12-29T09:07:31;7.75;;;5.47;;
7171;SDS011;3627;46.544;14.944;2022-12-29T09:09:57;6.40;;;4.85;;
7171;SDS011;3627;46.544;14.944;2022-12-29T09:12:23;6.25;;;4.38;;
7171;SDS011;3627;46.544;14.944;2022-12-29T09:14:50;6.03;;;4.45;;
7171;SDS011;3627;46.544;14.944;2022-12-29T09:17:18;5.10;;;4.50;;
7171;SDS011;3627;46.544;14.944;2022-12-29T09:20:02;9.82;;;4.78;;
7171;SDS011;3627;46.544;14.944;2022-12-29T09:22:28;5.53;;;4.25;;
7171;SDS011;3627;46.544;14.944;2022-12-29T09:24:55;6.65;;;4.63;;
7171;SDS011;3627;46.544;14.944;2022-12-29T09:27:21;5.40;;;4.20;;
7171;SDS011;3627;46.544;14.944;2022-12-29T09:29:48;6.95;;;4.60;;
7171;SDS011;3627;46.544;14.944;2022-12-29T09:32:14;5.28;;;4.30;;
7171;SDS011;3627;46.544;14.944;2022-12-29T09:34:42;5.55;;;4.70;;
7171;SDS011;3627;46.544;14.944;2022-12-29T09:37:08;6.65;;;4.60;;
7171;SDS011;3627;46.544;14.944;2022-12-29T09:39:34;5.47;;;4.75;;
7171;SDS011;3627;46.544;14.944;2022-12-29T09:42:01;5.35;;;4.40;;
7171;SDS011;3627;46.544;14.944;2022-12-29T09:44:31;4.70;;;3.88;;
7171;SDS011;3627;46.544;14.944;2022-12-29T09:46:59;6.18;;;4.28;;
7171;SDS011;3627;46.544;14.944;2022-12-29T09:49:28;5.80;;;4.40;;
7171;SDS011;3627;46.544;14.944;2022-12-29T09:51:59;5.00;;;4.15;;
7171;SDS011;3627;46.544;14.944;2022-12-29T09:54:32;4.93;;;4.15;;
7171;SDS011;3627;46.544;14.944;2022-12-29T09:57:02;4.55;;;3.92;;
7171;SDS011;3627;46.544;14.944;2022-12-29T09:59:34;5.93;;;3.83;;
7171;SDS011;3627;46.544;14.944;2022-12-29T10:02:04;4.93;;;4.03;;
7171;SDS011;3627;46.544;14.944;2022-12-29T10:04:32;5.00;;;3.80;;
7171;SDS011;3627;46.544;14.944;2022-12-29T10:07:01;7.32;;;4.28;;
7171;SDS011;3627;46.544;14.944;2022-12-29T10:09:30;4.85;;;3.78;;
7171;SDS011;3627;46.544;14.944;2022-12-29T10:12:02;4.32;;;3.72;;
7171;SDS011;3627;46.544;14.944;2022-12-29T10:14:39;4.97;;;3.72;;
7171;SDS011;3627;46.544;14.944;2022-12-29T10:17:10;5.15;;;4.00;;
7171;SDS011;3627;46.544;14.944;2022-12-29T10:19:53;5.31;;;4.29;;
7171;SDS011;3627;46.544;14.944;2022-12-29T10:22:27;7.10;;;4.15;;
7171;SDS011;3627;46.544;14.944;2022-12-29T10:24:56;5.00;;;3.45;;
7171;SDS011;3627;46.544;14.944;2022-12-29T10:27:22;5.25;;;4.13;;
7171;SDS011;3627;46.544;14.944;2022-12-29T10:29:51;6.00;;;3.80;;
7171;SDS011;3627;46.544;14.944;2022-12-29T10:32:22;6.25;;;4.60;;
7171;SDS011;3627;46.544;14.944;2022-12-29T10:34:51;3.92;;;3.50;;
7171;SDS011;3627;46.544;14.944;2022-12-29T10:37:24;4.32;;;3.38;;
7171;SDS011;3627;46.544;14.944;2022-12-29T10:39:55;4.75;;;3.20;;
7171;SDS011;3627;46.544;14.944;2022-12-29T10:42:26;4.55;;;3.63;;
7171;SDS011;3627;46.544;14.944;2022-12-29T10:44:53;5.20;;;3.33;;
7171;SDS011;3627;46.544;14.944;2022-12-29T10:47:20;5.70;;;4.20;;
7171;SDS011;3627;46.544;14.944;2022-12-29T10:49:48;4.40;;;4.00;;
7171;SDS011;3627;46.544;14.944;2022-12-29T10:52:16;4.70;;;4.20;;
7171;SDS011;3627;46.544;14.944;2022-12-29T10:54:44;7.10;;;5.00;;
7171;SDS011;3627;46.544;14.944;2022-12-29T10:57:22;5.40;;;4.65;;
7171;SDS011;3627;46.544;14.944;2022-12-29T10:59:50;5.53;;;3.97;;
7171;SDS011;3627;46.544;14.944;2022-12-29T11:02:26;5.78;;;4.72;;
7171;SDS011;3627;46.544;14.944;2022-12-29T11:04:55;4.75;;;4.32;;
7171;SDS011;3627;46.544;14.944;2022-12-29T11:07:23;6.65;;;4.47;;
7171;SDS011;3627;46.544;14.944;2022-12-29T11:09:51;7.93;;;5.40;;
7171;SDS011;3627;46.544;14.944;2022-12-29T11:12:20;5.15;;;4.63;;
7171;SDS011;3627;46.544;14.944;2022-12-29T11:14:47;8.82;;;5.72;;
7171;SDS011;3627;46.544;14.944;2022-12-29T11:17:14;9.18;;;5.43;;
7171;SDS011;3627;46.544;14.944;2022-12-29T11:19:50;8.32;;;5.91;;
7171;SDS011;3627;46.544;14.944;2022-12-29T11:22:20;6.82;;;5.10;;
7171;SDS011;3627;46.544;14.944;2022-12-29T11:24:47;9.50;;;5.30;;
7171;SDS011;3627;46.544;14.944;2022-12-29T11:27:14;8.32;;;5.68;;
7171;SDS011;3627;46.544;14.944;2022-12-29T11:29:43;7.03;;;5.38;;
7171;SDS011;3627;46.544;14.944;2022-12-29T11:32:10;9.52;;;6.10;;
7171;SDS011;3627;46.544;14.944;2022-12-29T11:34:37;9.60;;;6.63;;
7171;SDS011;3627;46.544;14.944;2022-12-29T11:37:04;6.60;;;5.53;;
7171;SDS011;3627;46.544;14.944;2022-12-29T11:39:33;8.23;;;5.28;;
7171;SDS011;3627;46.544;14.944;2022-12-29T11:41:59;7.13;;;4.70;;
7171;SDS011;3627;46.544;14.944;2022-12-29T11:44:27;5.88;;;4.90;;
7171;SDS011;3627;46.544;14.944;2022-12-29T11:46:57;10.10;;;6.07;;
7171;SDS011;3627;46.544;14.944;2022-12-29T11:49:24;9.25;;;5.57;;
7171;SDS011;3627;46.544;14.944;2022-12-29T11:51:52;6.68;;;4.72;;
7171;SDS011;3627;46.544;14.944;2022-12-29T11:54:22;6.57;;;4.95;;
7171;SDS011;3627;46.544;14.944;2022-12-29T11:56:50;6.68;;;4.47;;
7171;SDS011;3627;46.544;14.944;2022-12-29T11:59:34;7.57;;;4.60;;
7171;SDS011;3627;46.544;14.944;2022-12-29T12:02:08;11.75;;;6.95;;
7171;SDS011;3627;46.544;14.944;2022-12-29T12:04:37;6.90;;;5.38;;
7171;SDS011;3627;46.544;14.944;2022-12-29T12:07:05;6.35;;;5.00;;
7171;SDS011;3627;46.544;14.944;2022-12-29T12:09:35;6.82;;;4.80;;
7171;SDS011;3627;46.544;14.944;2022-12-29T12:12:03;8.60;;;5.90;;
7171;SDS011;3627;46.544;14.944;2022-12-29T12:14:31;13.82;;;6.57;;
7171;SDS011;3627;46.544;14.944;2022-12-29T12:17:02;8.88;;;5.97;;
7171;SDS011;3627;46.544;14.944;2022-12-29T12:19:32;6.80;;;5.57;;
7171;SDS011;3627;46.544;14.944;2022-12-29T12:22:00;6.22;;;5.32;;
7171;SDS011;3627;46.544;14.944;2022-12-29T12:24:37;5.75;;;4.78;;
7171;SDS011;3627;46.544;14.944;2022-12-29T12:27:09;8.13;;;5.03;;
7171;SDS011;3627;46.544;14.944;2022-12-29T12:29:38;7.35;;;4.65;;
7171;SDS011;3627;46.544;14.944;2022-12-29T12:32:09;5.95;;;5.07;;
7171;SDS011;3627;46.544;14.944;2022-12-29T12:34:39;6.05;;;4.63;;
7171;SDS011;3627;46.544;14.944;2022-12-29T12:37:11;7.00;;;4.75;;
7171;SDS011;3627;46.544;14.944;2022-12-29T12:39:44;6.93;;;4.78;;
7171;SDS011;3627;46.544;14.944;2022-12-29T12:42:16;9.63;;;4.95;;
7171;SDS011;3627;46.544;14.944;2022-12-29T12:44:47;6.68;;;4.70;;
7171;SDS011;3627;46.544;14.944;2022-12-29T12:47:24;6.13;;;4.55;;
7171;SDS011;3627;46.544;14.944;2022-12-29T12:50:01;5.03;;;4.55;;
7171;SDS011;3627;46.544;14.944;2022-12-29T12:52:33;6.20;;;4.28;;
7171;SDS011;3627;46.544;14.944;2022-12-29T12:55:10;7.47;;;5.47;;
7171;SDS011;3627;46.544;14.944;2022-12-29T12:57:42;5.63;;;4.90;;
7171;SDS011;3627;46.544;14.944;2022-12-29T13:00:12;5.68;;;4.53;;
7171;SDS011;3627;46.544;14.944;2022-12-29T13:02:45;5.25;;;4.28;;
7171;SDS011;3627;46.544;14.944;2022-12-29T13:05:35;5.63;;;4.45;;
7171;SDS011;3627;46.544;14.944;2022-12-29T13:08:22;5.47;;;4.75;;
7171;SDS011;3627;46.544;14.944;2022-12-29T13:10:52;7.65;;;5.20;;
7171;SDS011;3627;46.544;14.944;2022-12-29T13:13:30;5.88;;;4.45;;
7171;SDS011;3627;46.544;14.944;2022-12-29T13:16:00;7.53;;;5.13;;
7171;SDS011;3627;46.544;14.944;2022-12-29T13:18:29;6.63;;;5.75;;
7171;SDS011;3627;46.544;14.944;2022-12-29T13:20:59;8.70;;;5.38;;
7171;SDS011;3627;46.544;14.944;2022-12-29T13:23:30;6.38;;;4.25;;
7171;SDS011;3627;46.544;14.944;2022-12-29T13:26:01;6.53;;;5.13;;
7171;SDS011;3627;46.544;14.944;2022-12-29T13:28:31;8.13;;;4.63;;
7171;SDS011;3627;46.544;14.944;2022-12-29T13:31:00;6.30;;;5.00;;
7171;SDS011;3627;46.544;14.944;2022-12-29T13:33:30;6.00;;;5.00;;
7171;SDS011;3627;46.544;14.944;2022-12-29T13:36:02;5.53;;;4.57;;
7171;SDS011;3627;46.544;14.944;2022-12-29T13:38:31;5.63;;;4.15;;
7171;SDS011;3627;46.544;14.944;2022-12-29T13:40:59;9.07;;;5.25;;
7171;SDS011;3627;46.544;14.944;2022-12-29T13:43:26;7.20;;;5.68;;
7171;SDS011;3627;46.544;14.944;2022-12-29T13:45:57;7.95;;;4.60;;
7171;SDS011;3627;46.544;14.944;2022-12-29T13:48:25;6.95;;;5.07;;
7171;SDS011;3627;46.544;14.944;2022-12-29T13:50:55;7.15;;;4.50;;
7171;SDS011;3627;46.544;14.944;2022-12-29T13:53:26;5.80;;;4.88;;
7171;SDS011;3627;46.544;14.944;2022-12-29T13:55:56;6.40;;;5.18;;
7171;SDS011;3627;46.544;14.944;2022-12-29T13:58:27;5.07;;;4.43;;
7171;SDS011;3627;46.544;14.944;2022-12-29T14:00:57;6.63;;;4.80;;
7171;SDS011;3627;46.544;14.944;2022-12-29T14:06:15;5.68;;;4.38;;
7171;SDS011;3627;46.544;14.944;2022-12-29T14:08:43;6.05;;;3.95;;
7171;SDS011;3627;46.544;14.944;2022-12-29T14:11:10;6.38;;;5.32;;
7171;SDS011;3627;46.544;14.944;2022-12-29T14:13:37;5.35;;;4.13;;
7171;SDS011;3627;46.544;14.944;2022-12-29T14:16:04;4.97;;;4.40;;
7171;SDS011;3627;46.544;14.944;2022-12-29T14:18:31;6.60;;;4.78;;
7171;SDS011;3627;46.544;14.944;2022-12-29T14:20:59;7.05;;;5.13;;
7171;SDS011;3627;46.544;14.944;2022-12-29T14:23:28;5.97;;;4.32;;
7171;SDS011;3627;46.544;14.944;2022-12-29T14:25:59;4.47;;;4.07;;
7171;SDS011;3627;46.544;14.944;2022-12-29T14:28:26;6.00;;;4.60;;
7171;SDS011;3627;46.544;14.944;2022-12-29T14:30:53;5.07;;;4.57;;
7171;SDS011;3627;46.544;14.944;2022-12-29T14:33:20;7.50;;;4.65;;
7171;SDS011;3627;46.544;14.944;2022-12-29T14:35:48;5.70;;;4.85;;
7171;SDS011;3627;46.544;14.944;2022-12-29T14:38:21;6.25;;;4.90;;
7171;SDS011;3627;46.544;14.944;2022-12-29T14:40:49;8.00;;;5.05;;
7171;SDS011;3627;46.544;14.944;2022-12-29T14:43:26;9.73;;;5.40;;
7171;SDS011;3627;46.544;14.944;2022-12-29T14:45:57;5.45;;;4.43;;
7171;SDS011;3627;46.544;14.944;2022-12-29T14:48:29;6.18;;;4.90;;
7171;SDS011;3627;46.544;14.944;2022-12-29T14:50:56;8.07;;;4.82;;
7171;SDS011;3627;46.544;14.944;2022-12-29T14:53:42;6.03;;;3.88;;
7171;SDS011;3627;46.544;14.944;2022-12-29T14:56:09;6.27;;;4.97;;
7171;SDS011;3627;46.544;14.944;2022-12-29T14:58:38;8.38;;;5.50;;
7171;SDS011;3627;46.544;14.944;2022-12-29T15:01:13;7.03;;;5.18;;
7171;SDS011;3627;46.544;14.944;2022-12-29T15:03:43;6.28;;;5.05;;
7171;SDS011;3627;46.544;14.944;2022-12-29T15:06:11;6.15;;;4.25;;
7171;SDS011;3627;46.544;14.944;2022-12-29T15:08:39;6.43;;;4.43;;
7171;SDS011;3627;46.544;14.944;2022-12-29T15:11:09;3.70;;;3.30;;
7171;SDS011;3627;46.544;14.944;2022-12-29T15:13:41;5.93;;;4.53;;
7171;SDS011;3627;46.544;14.944;2022-12-29T15:16:20;4.27;;;3.63;;